createdAt,value
2023-03-30T00:01:27.107Z,99075.13
2023-03-30T00:03:56.880Z,99078.88
2023-03-30T00:06:26.885Z,99082.05
2023-03-30T00:08:58.594Z,99080.34
2023-03-30T00:11:34.553Z,99077.77
2023-03-30T00:14:03.177Z,99078.09
2023-03-30T00:16:32.272Z,99077.08
2023-03-30T00:19:00.815Z,99080.50
2023-03-30T00:21:33.894Z,99076.79
2023-03-30T00:24:02.402Z,99079.77
2023-03-30T00:26:31.265Z,99080.20
2023-03-30T00:29:04.560Z,99081.91
2023-03-30T00:31:33.387Z,99079.41
2023-03-30T00:34:01.932Z,99082.58
2023-03-30T00:36:37.415Z,99084.77
2023-03-30T00:39:07.283Z,99085.32
2023-03-30T00:41:36.868Z,99091.59
2023-03-30T00:44:07.988Z,99088.96
2023-03-30T00:46:36.940Z,99084.89
2023-03-30T00:49:08.945Z,99084.89
2023-03-30T00:51:38.903Z,99087.83
2023-03-30T00:54:14.062Z,99086.21
2023-03-30T00:56:43.406Z,99087.21
2023-03-30T00:59:12.443Z,99091.38
2023-03-30T01:01:42.308Z,99084.70
2023-03-30T01:04:15.229Z,99081.40
2023-03-30T01:06:46.684Z,99087.50
2023-03-30T01:09:16.867Z,99088.95
2023-03-30T01:11:47.541Z,99091.66
2023-03-30T01:14:16.847Z,99093.56
2023-03-30T01:16:49.105Z,99095.61
2023-03-30T01:19:39.619Z,99090.20
2023-03-30T01:22:24.406Z,99092.34
2023-03-30T01:25:12.315Z,99096.73
2023-03-30T01:27:46.530Z,99100.23
2023-03-30T01:30:33.950Z,99097.14
2023-03-30T01:33:09.781Z,99101.31
2023-03-30T01:35:58.563Z,99097.27
2023-03-30T01:38:42.495Z,99096.46
2023-03-30T01:41:14.497Z,99098.68
2023-03-30T01:43:55.943Z,99094.11
2023-03-30T01:46:31.043Z,99096.23
2023-03-30T01:49:16.421Z,99096.61
2023-03-30T01:51:59.474Z,99103.89
2023-03-30T01:54:42.702Z,99099.86
2023-03-30T01:57:31.982Z,99098.39
2023-03-30T02:00:12.258Z,99101.77
2023-03-30T02:03:12.023Z,99105.11
2023-03-30T02:05:41.050Z,99109.62
2023-03-30T02:08:18.744Z,99108.19
2023-03-30T02:10:47.821Z,99112.33
2023-03-30T02:13:17.032Z,99115.63
2023-03-30T02:15:48.082Z,99117.18
2023-03-30T02:18:17.363Z,99115.90
2023-03-30T02:20:46.153Z,99115.48
2023-03-30T02:23:17.804Z,99116.90
2023-03-30T02:25:48.648Z,99120.02
2023-03-30T02:28:25.103Z,99120.04
2023-03-30T02:30:54.612Z,99121.54
2023-03-30T02:33:59.547Z,99117.23
2023-03-30T02:36:47.395Z,99118.83
2023-03-30T02:39:50.962Z,99116.45
2023-03-30T02:42:29.000Z,99119.15
2023-03-30T02:45:13.757Z,99117.89
2023-03-30T02:47:52.239Z,99120.81
2023-03-30T02:50:47.614Z,99119.04
2023-03-30T02:53:52.316Z,99122.19
2023-03-30T02:56:38.296Z,99122.80
2023-03-30T02:59:38.425Z,99122.52
2023-03-30T03:02:13.345Z,99120.77
2023-03-30T03:04:46.646Z,99125.16
2023-03-30T03:07:24.968Z,99126.85
2023-03-30T03:09:53.752Z,99129.40
2023-03-30T03:12:23.967Z,99130.03
2023-03-30T03:15:02.192Z,99128.59
2023-03-30T03:17:35.170Z,99132.03
2023-03-30T03:20:11.731Z,99131.39
2023-03-30T03:22:41.751Z,99124.77
2023-03-30T03:25:10.749Z,99126.89
2023-03-30T03:27:58.787Z,99126.66
2023-03-30T03:30:28.899Z,99132.33
2023-03-30T03:33:08.474Z,99136.95
2023-03-30T03:35:39.692Z,99137.09
2023-03-30T03:38:09.185Z,99136.06
2023-03-30T03:40:38.287Z,99131.91
2023-03-30T03:43:07.487Z,99133.98
2023-03-30T03:45:42.727Z,99136.63
2023-03-30T03:48:11.715Z,99135.46
2023-03-30T03:50:56.267Z,99138.88
2023-03-30T03:53:25.262Z,99144.47
2023-03-30T03:55:56.200Z,99150.53
2023-03-30T03:58:25.818Z,99152.38
2023-03-30T04:01:01.884Z,99150.95
2023-03-30T04:03:33.018Z,99148.91
2023-03-30T04:06:02.830Z,99151.73
2023-03-30T04:08:31.711Z,99147.96
2023-03-30T04:11:24.659Z,99147.41
2023-03-30T04:14:11.277Z,99149.67
2023-03-30T04:17:15.182Z,99151.77
2023-03-30T04:20:06.342Z,99149.95
2023-03-30T04:22:46.553Z,99148.59
2023-03-30T04:25:32.543Z,99155.08
2023-03-30T04:28:07.165Z,99155.23
2023-03-30T04:31:10.926Z,99158.94
2023-03-30T04:33:47.005Z,99161.40
2023-03-30T04:36:32.826Z,99159.27
2023-03-30T04:39:11.920Z,99161.66
2023-03-30T04:42:08.183Z,99161.25
2023-03-30T04:44:55.500Z,99162.24
2023-03-30T04:47:43.798Z,99159.34
2023-03-30T04:50:32.615Z,99163.66
2023-03-30T04:53:20.233Z,99164.38
2023-03-30T04:56:08.898Z,99169.69
2023-03-30T04:58:58.668Z,99166.02
2023-03-30T05:01:47.035Z,99168.45
2023-03-30T05:04:25.536Z,99169.59
2023-03-30T05:06:54.323Z,99169.87
2023-03-30T05:09:30.787Z,99169.67
2023-03-30T05:12:23.332Z,99167.39
2023-03-30T05:15:03.279Z,99168.52
2023-03-30T05:17:44.480Z,99167.55
2023-03-30T05:20:36.596Z,99167.40
2023-03-30T05:23:24.837Z,99166.17
2023-03-30T05:25:55.543Z,99162.79
2023-03-30T05:28:43.520Z,99162.94
2023-03-30T05:31:40.900Z,99165.39
2023-03-30T05:34:22.893Z,99168.23
2023-03-30T05:37:00.056Z,99168.92
2023-03-30T05:39:38.158Z,99171.19
2023-03-30T05:42:26.093Z,99167.90
2023-03-30T05:45:13.826Z,99162.89
2023-03-30T05:47:51.148Z,99159.89
2023-03-30T05:50:41.000Z,99154.58
2023-03-30T05:54:38.363Z,99156.23
2023-03-30T05:57:38.790Z,99149.39
2023-03-30T06:00:26.422Z,99151.10
2023-03-30T06:03:14.789Z,99153.15
2023-03-30T06:05:44.577Z,99152.24
2023-03-30T06:08:13.973Z,99150.38
2023-03-30T06:10:52.888Z,99150.20
2023-03-30T06:13:21.495Z,99156.57
2023-03-30T06:15:55.439Z,99159.29
2023-03-30T06:18:27.470Z,99161.95
2023-03-30T06:21:07.392Z,99163.05
2023-03-30T06:23:49.332Z,99161.98
2023-03-30T06:26:20.542Z,99162.33
2023-03-30T06:28:51.965Z,99164.42
2023-03-30T06:31:20.582Z,99162.58
2023-03-30T06:33:53.758Z,99164.98
2023-03-30T06:36:22.551Z,99160.49
2023-03-30T06:39:12.028Z,99158.82
2023-03-30T06:41:41.123Z,99153.64
2023-03-30T06:44:18.099Z,99153.61
2023-03-30T06:46:48.232Z,99155.56
2023-03-30T06:49:17.187Z,99159.49
2023-03-30T06:51:45.931Z,99157.37
2023-03-30T06:54:15.400Z,99160.09
2023-03-30T06:56:50.960Z,99154.15
2023-03-30T06:59:20.376Z,99156.15
2023-03-30T07:02:14.858Z,99158.64
2023-03-30T07:05:02.170Z,99155.48
2023-03-30T07:07:49.700Z,99158.03
2023-03-30T07:10:18.887Z,99153.94
2023-03-30T07:12:47.680Z,99154.11
2023-03-30T07:15:17.188Z,99158.98
2023-03-30T07:17:45.875Z,99157.11
2023-03-30T07:20:16.813Z,99153.20
2023-03-30T07:22:57.989Z,99155.26
2023-03-30T07:25:27.292Z,99149.56
2023-03-30T07:27:58.030Z,99153.71
2023-03-30T07:30:27.719Z,99147.51
2023-03-30T07:33:02.187Z,99147.94
2023-03-30T07:35:31.373Z,99143.45
2023-03-30T07:38:02.796Z,99141.02
2023-03-30T07:40:37.566Z,99135.95
2023-03-30T07:43:07.684Z,99132.63
2023-03-30T07:45:41.349Z,99132.65
2023-03-30T07:48:11.987Z,99131.70
2023-03-30T07:50:40.990Z,99129.17
2023-03-30T07:53:10.580Z,99127.50
2023-03-30T07:55:39.637Z,99123.72
2023-03-30T07:58:22.690Z,99126.87
2023-03-30T08:00:51.191Z,99126.70
2023-03-30T08:03:37.923Z,99125.21
2023-03-30T08:06:06.980Z,99124.54
2023-03-30T08:08:41.421Z,99124.05
2023-03-30T08:11:11.473Z,99124.45
2023-03-30T08:13:46.990Z,99121.73
2023-03-30T08:16:15.869Z,99121.08
2023-03-30T08:18:44.513Z,99122.85
2023-03-30T08:21:13.632Z,99120.20
2023-03-30T08:23:42.320Z,99116.63
2023-03-30T08:26:11.150Z,99115.18
2023-03-30T08:28:39.697Z,99119.98
2023-03-30T08:31:08.577Z,99113.16
2023-03-30T08:33:39.849Z,99116.40
2023-03-30T08:36:08.371Z,99113.91
2023-03-30T08:38:37.302Z,99109.95
2023-03-30T08:41:24.831Z,99106.89
2023-03-30T08:44:01.199Z,99107.06
2023-03-30T08:46:29.755Z,99105.70
2023-03-30T08:49:00.138Z,99106.17
2023-03-30T08:51:31.869Z,99099.51
2023-03-30T08:54:01.836Z,99099.89
2023-03-30T08:56:35.829Z,99095.88
2023-03-30T08:59:22.560Z,99097.59
2023-03-30T09:02:09.715Z,99091.92
2023-03-30T09:04:58.075Z,99091.31
2023-03-30T09:07:28.077Z,99088.25
2023-03-30T09:09:57.290Z,99088.77
2023-03-30T09:12:44.325Z,99081.58
2023-03-30T09:15:20.389Z,99074.94
2023-03-30T09:18:01.093Z,99072.30
2023-03-30T09:20:32.620Z,99068.73
2023-03-30T09:23:02.382Z,99067.53
2023-03-30T09:25:51.255Z,99065.70
2023-03-30T09:28:29.140Z,99059.98
2023-03-30T09:31:03.085Z,99058.30
2023-03-30T09:33:46.016Z,99053.62
2023-03-30T09:36:16.158Z,99053.98
2023-03-30T09:38:50.636Z,99049.42
2023-03-30T09:41:50.531Z,99054.09
2023-03-30T09:45:07.140Z,99048.19
2023-03-30T09:47:38.292Z,99046.60
2023-03-30T09:50:24.089Z,99043.45
2023-03-30T09:53:03.610Z,99042.95
2023-03-30T09:55:35.672Z,99039.91
2023-03-30T09:58:14.712Z,99039.67
2023-03-30T10:00:43.107Z,99044.55
2023-03-30T10:03:22.980Z,99044.39
2023-03-30T10:06:07.764Z,99031.82
2023-03-30T10:08:56.851Z,99040.41
2023-03-30T10:11:42.189Z,99036.92
2023-03-30T10:14:21.197Z,99028.98
2023-03-30T10:16:49.460Z,99027.25
2023-03-30T10:19:21.295Z,99027.28
2023-03-30T10:21:49.982Z,99020.06
2023-03-30T10:24:23.080Z,99017.84
2023-03-30T10:27:13.096Z,99015.83
2023-03-30T10:29:52.708Z,99008.00
2023-03-30T10:32:22.992Z,99004.59
2023-03-30T10:34:53.546Z,99012.88
2023-03-30T10:37:34.858Z,99009.69
2023-03-30T10:40:11.449Z,99003.98
2023-03-30T10:42:39.883Z,99000.92
2023-03-30T10:45:16.237Z,98998.17
2023-03-30T10:48:24.158Z,98994.48
2023-03-30T10:51:01.974Z,98987.30
2023-03-30T10:53:33.313Z,98986.06
2023-03-30T10:56:49.849Z,98980.81
2023-03-30T10:59:42.869Z,98976.19
2023-03-30T11:02:35.207Z,98970.45
2023-03-30T11:05:10.822Z,98964.79
2023-03-30T11:07:53.583Z,98963.70
2023-03-30T11:10:29.646Z,98954.48
2023-03-30T11:13:04.162Z,98954.11
2023-03-30T11:15:50.664Z,98943.34
2023-03-30T11:18:57.054Z,98948.77
2023-03-30T11:21:56.975Z,98939.01
2023-03-30T11:24:26.349Z,98930.52
2023-03-30T11:27:09.775Z,98924.64
2023-03-30T11:29:58.428Z,98925.14
2023-03-30T11:32:32.625Z,98914.36
2023-03-30T11:35:15.147Z,98915.25
2023-03-30T11:38:05.977Z,98910.25
2023-03-30T11:40:41.674Z,98905.06
2023-03-30T11:43:11.944Z,98895.05
2023-03-30T11:45:55.072Z,98890.67
2023-03-30T11:48:42.990Z,98887.77
2023-03-30T11:51:31.564Z,98883.61
2023-03-30T11:54:31.159Z,98878.52
2023-03-30T11:57:22.372Z,98872.27
2023-03-30T12:00:23.110Z,98865.90
2023-03-30T12:03:16.205Z,98865.61
2023-03-30T12:05:56.519Z,98859.38
2023-03-30T12:08:34.426Z,98852.95
2023-03-30T12:11:28.257Z,98850.42
2023-03-30T12:14:03.466Z,98846.99
2023-03-30T12:16:52.338Z,98840.11
2023-03-30T12:19:37.517Z,98838.89
2023-03-30T12:22:47.928Z,98835.92
2023-03-30T12:25:28.779Z,98830.38
2023-03-30T12:28:12.784Z,98829.31
2023-03-30T12:31:00.409Z,98822.33
2023-03-30T12:33:34.598Z,98813.98
2023-03-30T12:36:23.544Z,98813.70
2023-03-30T12:38:57.528Z,98817.70
2023-03-30T12:41:43.194Z,98817.80
2023-03-30T12:44:20.946Z,98814.00
2023-03-30T12:47:18.823Z,98813.17
2023-03-30T12:50:27.871Z,98808.39
2023-03-30T12:53:50.811Z,98803.39
2023-03-30T12:57:09.200Z,98803.49
2023-03-30T12:59:53.818Z,98801.95
2023-03-30T13:02:39.554Z,98802.42
2023-03-30T13:05:33.994Z,98794.02
2023-03-30T13:08:08.279Z,98792.34
2023-03-30T13:10:40.677Z,98781.34
2023-03-30T13:13:17.885Z,98785.06
2023-03-30T13:15:48.811Z,98782.64
2023-03-30T13:18:17.206Z,98781.27
2023-03-30T13:20:48.020Z,98780.48
2023-03-30T13:23:20.092Z,98783.90
2023-03-30T13:26:15.178Z,98783.09
2023-03-30T13:28:55.205Z,98779.55
2023-03-30T13:31:26.606Z,98780.77
2023-03-30T13:34:34.186Z,98773.70
2023-03-30T13:37:38.203Z,98769.39
2023-03-30T13:40:24.542Z,98765.04
2023-03-30T13:43:07.827Z,98757.52
2023-03-30T13:46:17.541Z,98756.77
2023-03-30T13:48:46.694Z,98751.97
2023-03-30T13:51:20.181Z,98755.35
2023-03-30T13:53:49.835Z,98748.48
2023-03-30T13:56:18.586Z,98743.77
2023-03-30T13:58:51.495Z,98744.52
2023-03-30T14:01:20.672Z,98738.39
2023-03-30T14:04:00.614Z,98736.35
2023-03-30T14:06:32.027Z,98735.71
2023-03-30T14:09:06.710Z,98731.61
2023-03-30T14:11:40.768Z,98724.33
2023-03-30T14:14:25.862Z,98721.51
2023-03-30T14:16:54.245Z,98725.94
2023-03-30T14:19:35.012Z,98716.66
2023-03-30T14:22:10.159Z,98711.20
2023-03-30T14:24:39.291Z,98703.85
2023-03-30T14:27:13.757Z,98700.16
2023-03-30T14:29:46.555Z,98697.83
2023-03-30T14:32:16.080Z,98693.09
2023-03-30T14:34:48.637Z,98686.98
2023-03-30T14:37:18.519Z,98692.98
2023-03-30T14:39:51.190Z,98699.46
2023-03-30T14:42:21.476Z,98698.98
2023-03-30T14:44:52.476Z,98697.78
2023-03-30T14:47:22.979Z,98694.27
2023-03-30T14:49:52.231Z,98699.98
2023-03-30T14:52:22.451Z,98695.55
2023-03-30T14:55:05.208Z,98695.03
2023-03-30T14:57:38.500Z,98691.11
2023-03-30T15:00:21.342Z,98688.11
2023-03-30T15:02:59.206Z,98681.59
2023-03-30T15:05:36.514Z,98686.45
2023-03-30T15:08:04.925Z,98676.09
2023-03-30T15:10:56.553Z,98674.09
2023-03-30T15:13:31.883Z,98674.65
2023-03-30T15:16:00.275Z,98673.00
2023-03-30T15:18:29.972Z,98668.58
2023-03-30T15:21:01.134Z,98671.38
2023-03-30T15:23:38.884Z,98668.46
2023-03-30T15:26:07.410Z,98663.92
2023-03-30T15:28:49.801Z,98660.70
2023-03-30T15:31:21.193Z,98657.49
2023-03-30T15:33:54.463Z,98651.95
2023-03-30T15:36:25.193Z,98651.01
2023-03-30T15:39:01.463Z,98651.05
2023-03-30T15:41:52.425Z,98648.64
2023-03-30T15:44:21.460Z,98652.23
2023-03-30T15:46:51.456Z,98649.55
2023-03-30T15:49:22.060Z,98652.37
2023-03-30T15:51:53.293Z,98651.64
2023-03-30T15:54:34.585Z,98648.64
2023-03-30T15:57:10.210Z,98645.95
2023-03-30T15:59:52.590Z,98644.78
2023-03-30T16:02:32.438Z,98643.08
2023-03-30T16:05:00.972Z,98642.39
2023-03-30T16:07:31.446Z,98641.14
2023-03-30T16:10:06.463Z,98643.61
2023-03-30T16:12:41.681Z,98642.96
2023-03-30T16:15:24.328Z,98643.66
2023-03-30T16:17:53.178Z,98640.70
2023-03-30T16:20:23.937Z,98636.78
2023-03-30T16:22:52.532Z,98634.69
2023-03-30T16:25:26.032Z,98627.81
2023-03-30T16:28:03.309Z,98629.42
2023-03-30T16:30:37.654Z,98631.29
2023-03-30T16:33:06.713Z,98631.48
2023-03-30T16:35:35.735Z,98625.23
2023-03-30T16:38:05.124Z,98624.08
2023-03-30T16:40:43.105Z,98624.33
2023-03-30T16:43:11.826Z,98624.62
2023-03-30T16:45:40.927Z,98622.31
2023-03-30T16:48:12.598Z,98621.23
2023-03-30T16:50:44.660Z,98617.86
2023-03-30T16:53:13.104Z,98622.51
2023-03-30T16:55:41.695Z,98619.29
2023-03-30T16:58:15.861Z,98619.23
2023-03-30T17:00:48.237Z,98618.80
2023-03-30T17:03:18.297Z,98616.27
2023-03-30T17:05:48.956Z,98612.31
2023-03-30T17:08:23.960Z,98610.27
2023-03-30T17:10:53.358Z,98608.10
2023-03-30T17:13:29.522Z,98607.84
2023-03-30T17:16:20.345Z,98609.72
2023-03-30T17:18:48.597Z,98613.02
2023-03-30T17:21:18.000Z,98614.28
2023-03-30T17:23:48.002Z,98613.14
2023-03-30T17:26:17.666Z,98613.52
2023-03-30T17:28:46.840Z,98615.34
2023-03-30T17:31:18.265Z,98615.55
2023-03-30T17:33:50.951Z,98614.73
2023-03-30T17:36:23.288Z,98612.92
2023-03-30T17:38:52.110Z,98608.02
2023-03-30T17:41:21.124Z,98605.84
2023-03-30T17:43:49.802Z,98605.51
2023-03-30T17:46:19.641Z,98598.95
2023-03-30T17:48:48.389Z,98595.11
2023-03-30T17:51:17.796Z,98593.85
2023-03-30T17:53:46.929Z,98594.23
2023-03-30T17:56:20.085Z,98592.06
2023-03-30T17:58:49.787Z,98588.09
2023-03-30T18:01:18.435Z,98590.16
2023-03-30T18:03:47.923Z,98589.00
2023-03-30T18:06:16.593Z,98589.89
2023-03-30T18:08:45.473Z,98591.40
2023-03-30T18:11:13.828Z,98589.16
2023-03-30T18:13:42.359Z,98587.19
2023-03-30T18:16:12.930Z,98577.86
2023-03-30T18:18:42.346Z,98581.33
2023-03-30T18:21:11.788Z,98577.14
2023-03-30T18:23:44.034Z,98573.75
2023-03-30T18:26:13.490Z,98567.23
2023-03-30T18:28:44.074Z,98565.14
2023-03-30T18:31:13.503Z,98561.05
2023-03-30T18:33:41.936Z,98561.09
2023-03-30T18:36:13.296Z,98556.14
2023-03-30T18:38:42.563Z,98553.83
2023-03-30T18:41:13.053Z,98546.34
2023-03-30T18:43:44.051Z,98541.90
2023-03-30T18:46:12.749Z,98541.92
2023-03-30T18:48:41.941Z,98533.42
2023-03-30T18:51:11.861Z,98532.95
2023-03-30T18:53:42.823Z,98529.64
2023-03-30T18:56:12.591Z,98531.27
2023-03-30T18:58:43.046Z,98522.77
2023-03-30T19:01:16.143Z,98521.37
2023-03-30T19:03:45.360Z,98513.59
2023-03-30T19:06:16.646Z,98509.00
2023-03-30T19:08:45.089Z,98509.25
2023-03-30T19:11:19.852Z,98509.27
2023-03-30T19:13:48.245Z,98506.93
2023-03-30T19:16:18.947Z,98501.57
2023-03-30T19:18:49.602Z,98501.99
2023-03-30T19:21:18.216Z,98499.44
2023-03-30T19:23:46.826Z,98499.21
2023-03-30T19:26:15.266Z,98499.65
2023-03-30T19:28:47.740Z,98496.89
2023-03-30T19:31:16.802Z,98497.27
2023-03-30T19:33:45.418Z,98494.96
2023-03-30T19:36:14.297Z,98489.24
2023-03-30T19:38:44.394Z,98481.69
2023-03-30T19:41:18.649Z,98471.57
2023-03-30T19:43:50.269Z,98469.73
2023-03-30T19:46:19.102Z,98470.75
2023-03-30T19:48:47.793Z,98464.83
2023-03-30T19:51:16.988Z,98467.05
2023-03-30T19:53:47.808Z,98459.39
2023-03-30T19:56:16.702Z,98447.42
2023-03-30T19:58:45.475Z,98443.27
2023-03-30T20:01:13.820Z,98442.69
2023-03-30T20:03:43.611Z,98443.19
2023-03-30T20:06:12.807Z,98438.04
2023-03-30T20:08:41.719Z,98436.78
2023-03-30T20:11:11.056Z,98433.20
2023-03-30T20:13:45.588Z,98430.61
2023-03-30T20:16:20.500Z,98428.23
2023-03-30T20:18:53.344Z,98428.77
2023-03-30T20:27:58.817Z,98425.45
2023-03-30T20:30:27.668Z,98425.44
2023-03-30T20:33:07.280Z,98418.21
2023-03-30T20:35:37.378Z,98409.39
2023-03-30T20:38:06.370Z,98406.67
2023-03-30T20:40:35.931Z,98404.76
2023-03-30T20:50:47.572Z,98387.39
2023-03-30T20:53:17.299Z,98387.73
2023-03-30T20:55:46.703Z,98386.58
2023-03-30T20:58:15.162Z,98386.47
2023-03-30T21:00:43.541Z,98382.21
2023-03-30T21:03:15.560Z,98386.52
2023-03-30T21:05:43.984Z,98385.42
2023-03-30T21:08:14.208Z,98385.02
2023-03-30T21:10:43.228Z,98387.83
2023-03-30T21:13:12.091Z,98389.42
2023-03-30T21:15:42.311Z,98390.99
2023-03-30T21:18:11.019Z,98386.98
2023-03-30T21:20:39.479Z,98382.80
2023-03-30T21:23:09.231Z,98382.16
2023-03-30T21:25:37.799Z,98379.20
2023-03-30T21:28:07.785Z,98376.98
2023-03-30T21:30:36.272Z,98377.05
2023-03-30T21:33:05.642Z,98378.64
2023-03-30T21:35:34.315Z,98374.05
2023-03-30T21:38:04.175Z,98374.65
2023-03-30T21:40:33.673Z,98375.27
2023-03-30T21:43:02.153Z,98372.22
2023-03-30T21:45:30.575Z,98370.02
2023-03-30T21:47:59.224Z,98366.68
2023-03-30T21:50:28.357Z,98364.10
2023-03-30T21:52:58.350Z,98360.63
2023-03-30T21:55:26.714Z,98358.41
2023-03-30T21:57:55.454Z,98357.52
2023-03-30T22:00:23.900Z,98354.35
2023-03-30T22:02:53.842Z,98345.29
2023-03-30T22:05:22.367Z,98345.92
2023-03-30T22:07:50.948Z,98340.67
2023-03-30T22:10:19.738Z,98339.04
2023-03-30T22:12:56.041Z,98333.03
2023-03-30T22:15:24.587Z,98330.02
2023-03-30T22:17:52.869Z,98330.11
2023-03-30T22:20:21.780Z,98325.61
2023-03-30T22:22:50.333Z,98318.50
2023-03-30T22:25:19.629Z,98318.61
2023-03-30T22:27:50.628Z,98313.73
2023-03-30T22:30:18.964Z,98310.67
2023-03-30T22:32:48.584Z,98307.44
2023-03-30T22:35:17.476Z,98305.37
2023-03-30T22:37:45.931Z,98300.43
2023-03-30T22:40:15.083Z,98297.45
2023-03-30T22:42:43.493Z,98294.19
2023-03-30T22:45:12.908Z,98289.30
2023-03-30T22:47:41.989Z,98283.89
2023-03-30T22:50:11.265Z,98283.13
2023-03-30T22:52:40.704Z,98279.87
2023-03-30T22:55:09.774Z,98275.45
2023-03-30T22:57:38.292Z,98269.44
2023-03-30T23:00:10.845Z,98267.17
2023-03-30T23:02:41.420Z,98265.33
2023-03-30T23:05:10.591Z,98264.94
2023-03-30T23:07:39.474Z,98260.30
2023-03-30T23:10:09.484Z,98254.70
2023-03-30T23:12:39.606Z,98257.35
2023-03-30T23:22:49.195Z,98250.73
2023-03-30T23:25:17.895Z,98248.69
2023-03-30T23:27:46.439Z,98250.59
2023-03-30T23:30:15.630Z,98244.95
2023-03-30T23:33:03.778Z,98242.57
2023-03-30T23:35:32.529Z,98238.36
2023-03-30T23:38:03.567Z,98228.88
2023-03-30T23:40:31.942Z,98225.17
2023-03-30T23:43:00.618Z,98224.64
2023-03-30T23:45:29.121Z,98217.89
2023-03-30T23:47:57.832Z,98215.01
2023-03-30T23:50:28.797Z,98211.77
2023-03-30T23:52:57.858Z,98211.80
2023-03-30T23:55:26.381Z,98207.05
2023-03-30T23:57:54.862Z,98206.80
